Time;durP1;ratioP1;P1;durP2;ratioP2;P2;SDS_P1;SDS_P2;PMS_P1;PMS_P2;Temp;Humidity;BMP_temperature;BMP_pressure;BME280_temperature;BME280_humidity;BME280_pressure;Samples;Min_cycle;Max_cycle;Signal;HPM_P1;HPM_P2
2022/10/22 00:03:49;;;;;;;5.07;1.75;;;;;;;16.04;100.00;99369.88;12211719;19;20030;-78
2022/10/22 00:07:51;;;;;;;6.05;1.80;;;;;;;16.10;100.00;99358.41;12183782;19;20000;-78
2022/10/22 00:11:52;;;;;;;6.38;1.83;;;;;;;16.18;100.00;99352.19;12210557;19;20026;-78
2022/10/22 00:15:55;;;;;;;5.65;2.00;;;;;;;16.20;100.00;99353.81;12213119;19;20388;-78
2022/10/22 00:19:57;;;;;;;5.97;1.50;;;;;;;16.18;100.00;99352.19;12193198;19;20011;-78
2022/10/22 00:23:59;;;;;;;3.70;1.38;;;;;;;16.24;100.00;99360.44;12208710;19;20713;-78
2022/10/22 00:28:01;;;;;;;5.35;1.15;;;;;;;16.30;100.00;99346.19;12222120;19;20030;-78
2022/10/22 00:32:04;;;;;;;7.25;1.13;;;;;;;16.21;100.00;99339.66;12202041;19;20010;-78
2022/10/22 00:36:07;;;;;;;6.50;1.75;;;;;;;16.22;100.00;99346.03;12223333;19;20006;-78
2022/10/22 00:40:09;;;;;;;4.80;1.35;;;;;;;16.15;100.00;99355.56;12228412;19;20010;-78
2022/10/22 00:44:49;;;;;;;4.38;1.60;;;;;;;16.13;100.00;99365.31;12241943;19;20007;-78
2022/10/22 00:48:52;;;;;;;5.05;1.30;;;;;;;16.12;100.00;99358.94;12255536;19;20047;-78
2022/10/22 00:52:55;;;;;;;2.75;1.27;;;;;;;16.02;100.00;99359.03;12239364;19;20014;-78
2022/10/22 00:56:56;;;;;;;3.75;1.25;;;;;;;15.95;100.00;99362.19;12259917;19;20023;-78
2022/10/22 01:00:58;;;;;;;2.28;1.02;;;;;;;15.82;100.00;99360.09;12252720;19;20022;-78
2022/10/22 01:05:00;;;;;;;3.72;1.20;;;;;;;15.75;100.00;99372.72;12235868;19;20006;-78
2022/10/22 01:09:23;;;;;;;4.22;1.88;;;;;;;15.70;100.00;99370.81;12251493;19;20021;-78
2022/10/22 01:13:40;;;;;;;2.35;1.20;;;;;;;15.61;100.00;99375.31;12241333;19;20021;-78
2022/10/22 01:17:49;;;;;;;3.25;1.15;;;;;;;15.66;100.00;99372.50;12210496;19;20010;-78
2022/10/22 01:21:58;;;;;;;3.08;1.10;;;;;;;15.65;100.00;99371.69;12232439;19;20014;-79
2022/10/22 01:26:16;;;;;;;3.17;0.90;;;;;;;15.60;100.00;99374.50;12210465;19;20026;-79
2022/10/22 01:30:18;;;;;;;4.57;1.38;;;;;;;15.52;100.00;99369.56;12232273;19;20018;-79
2022/10/22 01:34:22;;;;;;;2.27;1.23;;;;;;;15.43;100.00;99368.56;12232357;19;20340;-79
2022/10/22 01:38:25;;;;;;;2.22;1.20;;;;;;;15.38;100.00;99375.00;12208253;19;20490;-79
2022/10/22 01:42:26;;;;;;;6.43;0.98;;;;;;;15.31;100.00;99370.91;12229399;19;20029;-78
2022/10/22 01:46:28;;;;;;;1.13;0.80;;;;;;;15.24;100.00;99372.06;12230765;19;20010;-77
2022/10/22 01:50:35;;;;;;;6.05;1.38;;;;;;;15.27;100.00;99376.22;12205382;19;20026;-78
2022/10/22 01:54:45;;;;;;;3.92;1.00;;;;;;;15.19;100.00;99374.06;12217532;19;20095;-78
2022/10/22 01:59:04;;;;;;;2.10;0.98;;;;;;;15.11;100.00;99389.41;12204573;19;20397;-77
2022/10/22 02:03:14;;;;;;;2.42;1.05;;;;;;;15.09;100.00;99393.59;12223053;19;20014;-77
2022/10/22 02:07:27;;;;;;;4.43;1.50;;;;;;;15.04;100.00;99383.34;12223557;19;20354;-77
2022/10/22 02:11:29;;;;;;;3.28;0.93;;;;;;;15.01;100.00;99387.53;12203027;19;20021;-79
2022/10/22 02:15:34;;;;;;;3.13;1.23;;;;;;;15.01;100.00;99384.75;12224662;19;20007;-78
2022/10/22 02:20:05;;;;;;;1.98;0.90;;;;;;;15.00;100.00;99393.38;12201772;19;20010;-78
2022/10/22 02:24:07;;;;;;;1.92;0.82;;;;;;;14.99;100.00;99388.91;12219262;19;20010;-78
2022/10/22 02:28:21;;;;;;;2.63;1.67;;;;;;;14.99;100.00;99386.16;12218089;19;20015;-78
2022/10/22 02:32:27;;;;;;;4.35;1.10;;;;;;;14.95;100.00;99391.44;12199925;19;20832;-79
2022/10/22 02:36:29;;;;;;;2.20;1.10;;;;;;;14.94;100.00;99375.94;12219487;19;20030;-79
2022/10/22 02:40:31;;;;;;;3.67;0.97;;;;;;;14.91;100.00;99378.47;12220651;19;20006;-78
2022/10/22 02:44:33;;;;;;;3.13;0.87;;;;;;;14.87;100.00;99371.81;12194932;19;20093;-78
2022/10/22 02:48:34;;;;;;;3.30;1.17;;;;;;;14.89;100.00;99361.28;12222712;19;20275;-78
2022/10/22 02:52:36;;;;;;;3.97;1.00;;;;;;;14.87;100.00;99367.09;12209464;19;19998;-79
2022/10/22 02:56:39;;;;;;;3.42;1.00;;;;;;;14.81;100.00;99362.69;12242087;19;20014;-78
2022/10/22 03:00:41;;;;;;;5.40;1.30;;;;;;;14.85;100.00;99361.03;12226413;19;20003;-78
2022/10/22 03:04:43;;;;;;;3.65;1.00;;;;;;;14.85;100.00;99372.13;12192981;19;20011;-78
2022/10/22 03:08:44;;;;;;;2.47;0.93;;;;;;;14.85;100.00;99386.00;12218625;19;20034;-78
2022/10/22 03:12:47;;;;;;;2.92;1.25;;;;;;;14.87;100.00;99380.97;12217102;19;20014;-78
2022/10/22 03:16:48;;;;;;;3.15;0.98;;;;;;;14.84;100.00;99376.00;12195825;19;20007;-77
2022/10/22 03:21:05;;;;;;;3.55;1.02;;;;;;;14.83;100.00;99368.81;12217628;19;21443;-78
2022/10/22 03:25:14;;;;;;;3.38;1.20;;;;;;;14.83;100.00;99371.56;12215160;19;20014;-78
2022/10/22 03:29:16;;;;;;;1.77;1.00;;;;;;;14.82;100.00;99381.84;12197814;19;20673;-78
2022/10/22 03:33:18;;;;;;;1.38;0.80;;;;;;;14.79;100.00;99392.69;12216664;19;20014;-78
2022/10/22 03:37:21;;;;;;;1.98;0.88;;;;;;;14.84;100.00;99398.19;12215546;19;20011;-78
2022/10/22 03:41:23;;;;;;;;;;;;;;;14.86;100.00;99400.69;12198285;19;20014;-78
2022/10/22 03:45:24;;;;;;;1.95;0.90;;;;;;;14.86;100.00;99422.88;12212604;19;19914;-78
2022/10/22 03:49:26;;;;;;;3.72;1.42;;;;;;;14.87;100.00;99432.84;12217464;19;20463;-78
2022/10/22 03:53:28;;;;;;;1.67;1.00;;;;;;;14.88;100.00;99435.34;12190668;19;20010;-78
2022/10/22 03:57:30;;;;;;;1.65;0.90;;;;;;;14.86;100.00;99465.31;12215163;19;20010;-78
2022/10/22 04:01:31;;;;;;;3.40;1.00;;;;;;;14.88;100.00;99467.81;12222436;19;20439;-78
2022/10/22 04:05:33;;;;;;;2.35;1.08;;;;;;;14.88;100.00;99454.75;12206548;19;20844;-78
2022/10/22 04:09:35;;;;;;;1.70;0.95;;;;;;;14.90;100.00;99458.09;12231432;19;20029;-78
2022/10/22 04:13:37;;;;;;;1.90;0.85;;;;;;;14.94;100.00;99473.03;12204380;19;20033;-78
2022/10/22 04:17:38;;;;;;;7.45;1.40;;;;;;;14.97;100.00;99488.28;12228343;19;20017;-78
2022/10/22 04:21:40;;;;;;;3.23;1.10;;;;;;;15.01;100.00;99494.91;12224951;19;20014;-78
2022/10/22 04:25:42;;;;;;;1.90;0.77;;;;;;;15.03;100.00;99496.28;12202780;19;20013;-78
2022/10/22 04:29:44;;;;;;;2.42;0.80;;;;;;;15.05;100.00;99498.78;12229132;19;20018;-79
2022/10/22 04:33:46;;;;;;;7.47;1.00;;;;;;;15.08;100.00;99514.88;12224139;19;20014;-78
2022/10/22 04:37:48;;;;;;;3.67;1.02;;;;;;;15.07;100.00;99504.84;12205012;19;20464;-77
2022/10/22 04:41:49;;;;;;;2.17;0.90;;;;;;;15.08;100.00;99509.31;12227366;19;20015;-78
2022/10/22 04:45:51;;;;;;;3.97;1.00;;;;;;;15.04;100.00;99513.75;12229445;19;20014;-78
2022/10/22 04:49:53;;;;;;;2.85;0.95;;;;;;;14.96;100.00;99517.97;12206448;19;19999;-79
2022/10/22 04:53:54;;;;;;;2.75;1.00;;;;;;;14.92;100.00;99522.41;12225556;19;20015;-79
2022/10/22 04:57:56;;;;;;;1.25;0.80;;;;;;;14.89;100.00;99511.06;12228456;19;20035;-79
2022/10/22 05:01:57;;;;;;;2.65;1.00;;;;;;;14.85;100.00;99508.03;12202756;19;20515;-79
2022/10/22 05:06:00;;;;;;;2.10;0.90;;;;;;;14.76;100.00;99507.81;12223737;19;20007;-78
2022/10/22 05:10:02;;;;;;;3.88;0.98;;;;;;;14.67;100.00;99517.00;12224045;19;20014;-79
2022/10/22 05:14:05;;;;;;;1.90;0.82;;;;;;;14.51;100.00;99518.97;12197054;19;20187;-78
2022/10/22 05:18:06;;;;;;;1.35;0.80;;;;;;;14.46;100.00;99527.31;12222915;19;20027;-78
2022/10/22 05:22:08;;;;;;;2.38;0.73;;;;;;;14.49;100.00;99533.13;12222897;19;20010;-78
2022/10/22 05:26:11;;;;;;;1.83;0.80;;;;;;;14.54;100.00;99519.25;12199719;19;20751;-78
2022/10/22 05:30:13;;;;;;;1.63;0.70;;;;;;;14.57;100.00;99535.34;12224553;19;20409;-78
2022/10/22 05:34:15;;;;;;;4.18;0.85;;;;;;;14.64;100.00;99542.53;12217573;19;20014;-79
2022/10/22 05:38:17;;;;;;;2.72;0.82;;;;;;;14.71;100.00;99548.59;12202564;19;20825;-78
2022/10/22 05:42:19;;;;;;;1.63;0.70;;;;;;;14.76;100.00;99548.59;12221195;19;20027;-79
2022/10/22 05:46:22;;;;;;;2.92;0.80;;;;;;;14.83;100.00;99551.88;12223508;19;20014;-78
2022/10/22 05:50:23;;;;;;;;;;;;;;;14.83;100.00;99565.75;12222963;19;20050;-77
2022/10/22 05:54:25;;;;;;;1.42;0.75;;;;;;;14.87;100.00;99566.81;12242129;19;19949;-77
2022/10/22 05:58:27;;;;;;;1.40;0.80;;;;;;;14.93;100.00;99575.97;12234748;19;20346;-78
2022/10/22 06:02:28;;;;;;;3.08;0.70;;;;;;;14.98;100.00;99585.09;12201689;19;20022;-78
2022/10/22 06:06:36;;;;;;;1.77;0.75;;;;;;;15.01;100.00;99590.06;12220227;19;20015;-78
2022/10/22 06:10:41;;;;;;;1.30;0.77;;;;;;;15.02;100.00;99583.44;12198519;19;20031;-78
2022/10/22 06:14:43;;;;;;;3.20;0.80;;;;;;;15.08;100.00;99584.25;12218247;19;20129;-78
2022/10/22 06:18:45;;;;;;;2.50;0.57;;;;;;;15.09;100.00;99594.22;12220931;19;20014;-78
2022/10/22 06:22:47;;;;;;;4.00;0.60;;;;;;;15.04;100.00;99600.59;12197739;19;20006;-79
2022/10/22 06:26:50;;;;;;;1.85;0.60;;;;;;;14.99;100.00;99614.53;12216348;19;20014;-78
2022/10/22 06:30:51;;;;;;;;;;;;;;;14.93;100.00;99626.75;12217898;19;20003;-78
2022/10/22 06:34:53;;;;;;;2.95;0.90;;;;;;;15.02;100.00;99641.69;12190259;19;19915;-78
2022/10/22 06:38:55;;;;;;;3.03;0.60;;;;;;;15.10;100.00;99642.22;12213508;19;20011;-78
2022/10/22 06:42:58;;;;;;;1.57;0.60;;;;;;;15.09;100.00;99651.66;12213975;19;20015;-78
2022/10/22 06:47:01;;;;;;;1.92;0.93;;;;;;;15.07;100.00;99656.66;12193892;19;20037;-78
2022/10/22 06:51:04;;;;;;;2.30;0.57;;;;;;;15.01;100.00;99656.66;12215313;19;20010;-78
2022/10/22 06:55:06;;;;;;;2.83;0.82;;;;;;;14.96;100.00;99662.25;12215940;19;20014;-78
2022/10/22 06:59:08;;;;;;;1.80;0.85;;;;;;;14.81;100.00;99665.06;12196569;19;20019;-79
2022/10/22 07:03:13;;;;;;;1.30;0.63;;;;;;;14.71;100.00;99679.78;12215212;19;20018;-78
2022/10/22 07:07:15;;;;;;;1.67;0.77;;;;;;;14.64;100.00;99678.44;12214661;19;20036;-79
2022/10/22 07:11:19;;;;;;;2.80;0.80;;;;;;;14.53;100.00;99681.19;12196582;19;20013;-79
2022/10/22 07:15:21;;;;;;;2.55;0.70;;;;;;;14.48;100.00;99683.94;12226169;19;20015;-78
2022/10/22 07:19:22;;;;;;;1.30;0.70;;;;;;;14.48;100.00;99686.69;12237205;19;20357;-78
2022/10/22 07:23:24;;;;;;;2.95;0.93;;;;;;;14.44;100.00;99693.94;12212887;19;20061;-78
2022/10/22 07:27:27;;;;;;;1.55;0.80;;;;;;;14.42;100.00;99698.09;12196315;19;20440;-78
2022/10/22 07:31:29;;;;;;;4.07;0.70;;;;;;;14.39;100.00;99702.25;12229713;19;20007;-78
2022/10/22 07:35:31;;;;;;;5.15;0.80;;;;;;;14.39;100.00;99710.56;12192835;19;20006;-78
2022/10/22 07:39:33;;;;;;;3.00;0.70;;;;;;;14.46;100.00;99705.59;12226520;19;20403;-78
2022/10/22 07:43:34;;;;;;;2.13;0.70;;;;;;;14.52;100.00;99707.28;12220658;19;20011;-78
2022/10/22 07:47:36;;;;;;;0.93;0.70;;;;;;;14.64;100.00;99720.03;12221275;19;20049;-78
2022/10/22 07:51:38;;;;;;;1.63;0.65;;;;;;;14.77;100.00;99716.66;12223372;19;20014;-78
2022/10/22 07:55:39;;;;;;;2.25;0.60;;;;;;;14.92;100.00;99724.94;12199181;19;20014;-78
2022/10/22 07:59:41;;;;;;;2.40;0.80;;;;;;;15.11;100.00;99724.34;12222381;19;20077;-76
2022/10/22 08:03:43;;;;;;;1.42;0.40;;;;;;;15.31;100.00;99732.59;12215880;19;20015;-77
2022/10/22 08:07:44;;;;;;;1.75;0.65;;;;;;;15.53;100.00;99723.06;12201434;19;20003;-78
2022/10/22 08:11:46;;;;;;;1.27;0.63;;;;;;;15.72;100.00;99722.19;12219833;19;20011;-78
2022/10/22 08:15:48;;;;;;;2.10;0.50;;;;;;;15.94;100.00;99719.00;12223612;19;20014;-76
2022/10/22 08:19:55;;;;;;;3.47;0.73;;;;;;;16.15;100.00;99722.50;12224150;19;20016;-76
2022/10/22 08:23:57;;;;;;;4.53;0.80;;;;;;;16.25;100.00;99729.09;12218531;19;20014;-77
2022/10/22 08:27:59;;;;;;;1.90;0.52;;;;;;;16.45;100.00;99736.41;12201749;19;20023;-77
2022/10/22 08:32:01;;;;;;;3.88;0.63;;;;;;;16.56;100.00;99751.91;12181935;19;20021;-78
2022/10/22 08:36:04;;;;;;;4.25;0.93;;;;;;;16.75;100.00;99757.59;12222374;19;20030;-78
2022/10/22 08:40:06;;;;;;;2.97;0.50;;;;;;;16.80;100.00;99761.19;12215641;19;20011;-78
2022/10/22 08:44:23;;;;;;;1.53;0.50;;;;;;;16.97;100.00;99763.53;12198474;19;20121;-78
2022/10/22 08:48:43;;;;;;;2.40;0.70;;;;;;;17.04;100.00;99757.63;12221227;19;20251;-78
2022/10/22 08:52:52;;;;;;;3.40;0.88;;;;;;;17.20;100.00;99758.31;12198956;19;20011;-79
2022/10/22 08:57:13;;;;;;;1.30;0.60;;;;;;;17.36;100.00;99764.53;12218822;19;20018;-78
2022/10/22 09:01:36;;;;;;;2.55;0.75;;;;;;;17.42;100.00;99780.88;12221152;19;20019;-78
2022/10/22 09:05:50;;;;;;;1.73;0.65;;;;;;;17.56;100.00;99780.19;12195600;19;20623;-79
2022/10/22 09:10:12;;;;;;;1.10;0.60;;;;;;;17.64;100.00;99769.19;12216829;19;20031;-77
2022/10/22 09:14:19;;;;;;;0.97;0.60;;;;;;;17.72;100.00;99779.66;12193080;19;20021;-78
2022/10/22 09:18:40;;;;;;;2.60;0.70;;;;;;;17.81;100.00;99777.09;12220115;19;20002;-79
2022/10/22 09:22:54;;;;;;;0.65;0.45;;;;;;;17.91;100.00;99784.50;12197713;19;20042;-78
2022/10/22 09:26:56;;;;;;;2.30;0.70;;;;;;;18.05;100.00;99781.78;12217556;19;20007;-79
2022/10/22 09:30:58;;;;;;;1.52;0.60;;;;;;;18.19;100.00;99780.75;12223364;19;20070;-79
2022/10/22 09:35:00;;;;;;;2.08;0.50;;;;;;;18.35;100.00;99781.34;12196402;19;20025;-80
2022/10/22 09:39:03;;;;;;;2.15;0.70;;;;;;;18.37;100.00;99789.41;12222446;19;20021;-79
2022/10/22 09:43:04;;;;;;;2.63;0.80;;;;;;;18.55;100.00;99790.53;12219643;19;20512;-78
2022/10/22 09:47:26;;;;;;;2.50;0.75;;;;;;;18.72;100.00;99789.97;12194740;19;20010;-78
2022/10/22 09:51:55;;;;;;;3.58;0.63;;;;;;;18.67;100.00;99788.91;12217885;19;20014;-80
2022/10/22 09:55:59;;;;;;;2.35;0.70;;;;;;;18.71;100.00;99793.88;12196563;19;22063;-79
2022/10/22 10:00:01;;;;;;;2.42;0.70;;;;;;;18.66;100.00;99786.44;12223715;19;20083;-78
2022/10/22 10:04:13;;;;;;;2.97;0.60;;;;;;;18.72;100.00;99801.16;12222714;19;20016;-77
2022/10/22 10:08:16;;;;;;;1.10;0.75;;;;;;;18.76;100.00;99797.47;12200865;19;20027;-78
2022/10/22 10:12:21;;;;;;;;;;;;;;;18.88;99.38;99806.19;12224344;19;20035;-80
2022/10/22 10:16:48;;;;;;;1.20;0.60;;;;;;;19.12;98.53;99810.81;12214629;19;19927;-79
2022/10/22 10:21:04;;;;;;;1.88;0.77;;;;;;;19.26;97.57;99822.03;12193577;19;20049;-79
2022/10/22 10:25:34;;;;;;;2.13;0.70;;;;;;;19.32;98.85;99816.03;12214007;19;20030;-79
2022/10/22 10:29:59;;;;;;;1.30;0.70;;;;;;;19.35;96.12;99804.22;12194802;19;20013;-78
2022/10/22 10:34:16;;;;;;;10.55;1.25;;;;;;;19.36;96.93;99805.06;12212269;19;20686;-79
2022/10/22 10:38:47;;;;;;;2.05;0.90;;;;;;;19.53;96.18;99808.06;12192097;19;20459;-78
2022/10/22 10:43:00;;;;;;;4.80;1.35;;;;;;;19.65;94.30;99806.78;12206553;19;20006;-78
2022/10/22 10:47:30;;;;;;;6.05;0.85;;;;;;;19.92;94.70;99787.16;12192097;19;20373;-79
2022/10/22 10:51:56;;;;;;;4.93;1.25;;;;;;;20.41;90.90;99799.50;12211985;19;20014;-80
2022/10/22 10:56:20;;;;;;;3.92;1.63;;;;;;;20.41;86.22;99798.69;12192755;19;20010;-78
2022/10/22 11:00:22;;;;;;;5.47;0.90;;;;;;;20.33;87.16;99800.25;12214314;19;20516;-79
2022/10/22 11:04:45;;;;;;;3.17;0.70;;;;;;;20.27;84.58;99807.94;12211197;19;20014;-78
2022/10/22 11:09:06;;;;;;;;;;;;;;;20.11;84.88;99794.59;12193094;19;20018;-79
2022/10/22 11:13:15;;;;;;;10.27;0.98;;;;;;;20.11;84.86;99803.84;12213269;19;20333;-78
2022/10/22 11:17:20;;;;;;;2.47;0.77;;;;;;;20.08;85.58;99798.03;12190173;19;20044;-77
2022/10/22 11:21:33;;;;;;;6.03;0.90;;;;;;;20.17;87.07;99796.16;12212078;19;20017;-78
2022/10/22 11:25:42;;;;;;;3.72;0.80;;;;;;;20.65;85.08;99790.84;12210895;19;20393;-78
2022/10/22 11:29:51;;;;;;;6.18;1.00;;;;;;;20.71;83.24;99785.97;12193082;19;20673;-79
2022/10/22 11:33:58;;;;;;;6.95;1.10;;;;;;;20.80;85.13;99783.22;12208325;19;21196;-79
2022/10/22 11:38:15;;;;;;;4.82;0.85;;;;;;;20.97;80.94;99788.09;12190523;19;20091;-78
2022/10/22 11:42:33;;;;;;;3.47;0.90;;;;;;;21.06;80.39;99788.97;12204662;19;20019;-78
2022/10/22 11:46:37;;;;;;;3.05;1.10;;;;;;;21.04;79.24;99788.47;12211864;19;20025;-78
2022/10/22 11:50:42;;;;;;;2.72;0.95;;;;;;;21.06;79.30;99797.38;12190230;19;20038;-81
2022/10/22 11:54:43;;;;;;;3.85;0.73;;;;;;;21.09;80.99;99788.31;12204987;19;20017;-78
2022/10/22 11:58:46;;;;;;;4.72;1.00;;;;;;;21.28;80.43;99780.53;12190099;19;20010;-80
2022/10/22 12:03:04;;;;;;;2.72;1.00;;;;;;;21.33;79.30;99785.19;12211507;19;20020;-80
2022/10/22 12:07:31;;;;;;;2.85;0.75;;;;;;;21.44;77.08;99783.75;12209152;19;20014;-78
2022/10/22 12:11:48;;;;;;;2.05;0.88;;;;;;;21.58;78.71;99789.28;12188960;19;20011;-79
2022/10/22 12:15:57;;;;;;;4.35;0.98;;;;;;;21.98;76.95;99780.81;12210767;19;20006;-79
2022/10/22 12:20:11;;;;;;;5.15;1.33;;;;;;;22.69;71.32;99770.13;12186381;19;20014;-79
2022/10/22 12:24:15;;;;;;;3.72;0.80;;;;;;;23.19;67.57;99769.56;12218864;19;20006;-78
2022/10/22 12:28:17;;;;;;;5.65;0.95;;;;;;;23.66;67.42;99757.50;12221048;19;20010;-77
2022/10/22 12:32:20;;;;;;;4.50;1.00;;;;;;;24.03;64.12;99767.06;12198916;19;20041;-78
2022/10/22 12:36:24;;;;;;;2.72;0.75;;;;;;;24.49;62.33;99756.81;12221027;19;20038;-78
2022/10/22 12:40:29;;;;;;;6.20;1.15;;;;;;;25.29;61.93;99752.06;12221744;19;20480;-78
2022/10/22 12:44:31;;;;;;;4.10;1.10;;;;;;;25.62;58.27;99757.63;12193855;19;20010;-77
2022/10/22 12:48:38;;;;;;;6.53;1.38;;;;;;;25.89;58.54;99762.56;12220154;19;20658;-78
2022/10/22 12:52:40;;;;;;;4.18;1.38;;;;;;;25.84;57.58;99762.81;12197783;19;20014;-79
2022/10/22 12:56:45;;;;;;;3.00;0.90;;;;;;;26.05;57.61;99765.50;12220090;19;20020;-78
2022/10/22 13:00:48;;;;;;;3.40;1.40;;;;;;;25.69;57.87;99766.31;12221043;19;20038;-77
2022/10/22 13:05:14;;;;;;;4.05;1.02;;;;;;;24.34;59.38;99765.88;12196391;19;20039;-77
2022/10/22 13:09:18;;;;;;;5.50;0.98;;;;;;;23.60;62.20;99773.72;12219638;19;20029;-78
2022/10/22 13:13:44;;;;;;;3.17;1.00;;;;;;;23.02;63.77;99768.81;12219348;19;20066;-80
2022/10/22 13:17:47;;;;;;;2.00;0.88;;;;;;;22.47;66.05;99771.16;12198761;19;20030;-78
2022/10/22 13:21:49;;;;;;;3.97;1.20;;;;;;;22.33;66.15;99773.28;12236877;19;20022;-76
2022/10/22 13:26:11;;;;;;;1.88;0.90;;;;;;;22.03;67.64;99772.25;12245786;19;20010;-76
2022/10/22 13:30:32;;;;;;;3.80;1.37;;;;;;;21.92;69.41;99780.16;12269918;19;20020;-78
2022/10/22 13:34:35;;;;;;;2.72;1.13;;;;;;;21.68;70.44;99774.94;12220239;19;20723;-79
2022/10/22 13:38:36;;;;;;;;;;;;;;;21.51;72.52;99772.09;12211420;19;20359;-76
2022/10/22 13:42:38;;;;;;;2.92;1.00;;;;;;;21.41;72.69;99761.97;12257344;19;19915;-78
2022/10/22 13:46:42;;;;;;;4.70;1.10;;;;;;;21.11;74.79;99760.81;12243940;19;20105;-76
2022/10/22 13:50:45;;;;;;;;;;;;;;;20.90;76.37;99769.75;12227486;19;20082;-78
2022/10/22 13:54:47;;;;;;;6.78;1.35;;;;;;;20.87;76.19;99770.41;12221687;19;20234;-80
2022/10/22 13:58:49;;;;;;;2.22;1.10;;;;;;;20.66;78.08;99761.69;12202969;19;20544;-78
2022/10/22 14:02:57;;;;;;;3.93;1.03;;;;;;;20.53;78.36;99764.56;12216381;19;20079;-79
2022/10/22 14:07:02;;;;;;;5.45;1.50;;;;;;;20.42;80.13;99767.56;12215572;19;20014;-78
2022/10/22 14:11:05;;;;;;;4.53;2.17;;;;;;;20.52;79.35;99762.88;12198514;19;20026;-79
2022/10/22 14:15:09;;;;;;;4.90;1.05;;;;;;;20.56;79.66;99772.34;12218742;19;20011;-78
2022/10/22 14:19:16;;;;;;;6.35;1.13;;;;;;;20.65;78.56;99767.63;12219438;19;20042;-80
2022/10/22 14:23:20;;;;;;;4.22;1.30;;;;;;;20.51;78.05;99772.41;12196223;19;20050;-79
2022/10/22 14:27:22;;;;;;;3.80;0.70;;;;;;;20.36;77.97;99771.63;12218129;19;21746;-79
2022/10/22 14:31:24;;;;;;;5.50;1.00;;;;;;;20.16;77.08;99778.53;12222895;19;20039;-79
2022/10/22 14:35:26;;;;;;;5.05;0.98;;;;;;;20.07;78.68;99774.81;12194398;19;20010;-80
2022/10/22 14:39:28;;;;;;;4.70;1.02;;;;;;;19.94;81.06;99776.50;12219336;19;20011;-80
2022/10/22 14:43:30;;;;;;;1.77;0.70;;;;;;;19.88;82.68;99774.16;12214951;19;20007;-78
2022/10/22 14:47:32;;;;;;;4.87;1.27;;;;;;;19.75;84.22;99764.63;12188379;19;20047;-79
2022/10/22 14:51:33;;;;;;;4.63;1.20;;;;;;;19.60;84.74;99776.91;12214067;19;20267;-78
2022/10/22 14:55:35;;;;;;;3.17;1.08;;;;;;;19.65;84.47;99770.44;12214182;19;20029;-79
2022/10/22 14:59:36;;;;;;;4.18;1.20;;;;;;;19.87;84.33;99767.72;12195576;19;20380;-79
2022/10/22 15:03:38;;;;;;;3.70;1.60;;;;;;;19.93;84.67;99772.06;12213755;19;20006;-78
2022/10/22 15:07:40;;;;;;;2.90;1.17;;;;;;;20.03;84.18;99773.81;12211758;19;20010;-79
2022/10/22 15:11:43;;;;;;;5.10;1.35;;;;;;;20.03;84.27;99771.84;12213097;19;20029;-79
2022/10/22 15:15:44;;;;;;;7.28;1.23;;;;;;;19.82;85.01;99778.19;12215361;19;20033;-78
2022/10/22 15:19:46;;;;;;;7.47;1.20;;;;;;;19.70;86.12;99779.53;12194469;19;20037;-78
2022/10/22 15:23:49;;;;;;;3.40;1.05;;;;;;;19.54;87.23;99778.16;12210757;19;20014;-79
2022/10/22 15:27:51;;;;;;;3.85;1.15;;;;;;;19.42;88.33;99773.06;12214897;19;20034;-79
2022/10/22 15:32:00;;;;;;;5.60;1.10;;;;;;;19.27;89.22;99770.59;12189337;19;20103;-77
2022/10/22 15:36:13;;;;;;;4.18;1.40;;;;;;;19.15;89.80;99771.09;12211750;19;20022;-77
2022/10/22 15:40:14;;;;;;;2.90;1.58;;;;;;;19.03;90.07;99785.53;12216140;19;20034;-79
2022/10/22 15:44:19;;;;;;;13.90;1.83;;;;;;;18.88;91.11;99777.44;12221083;19;20031;-78
2022/10/22 15:48:20;;;;;;;7.75;1.92;;;;;;;18.68;92.70;99776.63;12239275;19;20010;-77
2022/10/22 15:52:22;;;;;;;6.43;2.42;;;;;;;18.48;94.76;99782.56;12239541;19;20023;-77
2022/10/22 15:56:27;;;;;;;9.48;2.72;;;;;;;18.27;96.07;99789.56;12208606;19;20013;-78
2022/10/22 16:00:29;;;;;;;11.93;2.72;;;;;;;18.06;97.64;99798.22;12225305;19;20011;-78
2022/10/22 16:04:34;;;;;;;7.32;1.42;;;;;;;17.85;99.25;99789.31;12221894;19;20006;-78
2022/10/22 16:08:37;;;;;;;6.47;1.30;;;;;;;17.68;100.00;99789.75;12198159;19;20356;-77
2022/10/22 16:12:39;;;;;;;6.75;1.58;;;;;;;17.47;100.00;99786.38;12218781;19;20033;-78
2022/10/22 16:16:49;;;;;;;8.00;2.63;;;;;;;17.28;100.00;99796.63;12208900;19;20015;-79
2022/10/22 16:20:50;;;;;;;5.05;1.23;;;;;;;17.09;100.00;99793.75;12220990;19;20017;-78
2022/10/22 16:24:52;;;;;;;6.13;1.70;;;;;;;16.93;100.00;99784.75;12218785;19;20022;-78
2022/10/22 16:28:54;;;;;;;11.80;1.70;;;;;;;16.77;100.00;99797.13;12195381;19;20018;-78
2022/10/22 16:32:56;;;;;;;9.13;1.95;;;;;;;16.60;100.00;99787.22;12211905;19;20025;-78
2022/10/22 16:36:58;;;;;;;8.68;1.55;;;;;;;16.45;100.00;99794.81;12211246;19;20027;-77
2022/10/22 16:41:20;;;;;;;12.75;2.22;;;;;;;16.33;100.00;99796.03;12204772;19;20074;-77
2022/10/22 16:45:22;;;;;;;12.15;2.75;;;;;;;16.17;100.00;99800.84;12217423;19;20713;-78
2022/10/22 16:49:23;;;;;;;20.00;2.60;;;;;;;16.07;100.00;99805.66;12214443;19;20006;-78
2022/10/22 16:53:25;;;;;;;9.00;1.83;;;;;;;15.96;100.00;99796.53;12197832;19;20011;-77
2022/10/22 16:57:27;;;;;;;10.55;1.73;;;;;;;15.86;100.00;99800.19;12218505;19;20467;-78
2022/10/22 17:01:29;;;;;;;16.90;1.83;;;;;;;15.79;100.00;99802.44;12220340;19;20010;-78
2022/10/22 17:05:34;;;;;;;9.75;1.63;;;;;;;15.71;100.00;99814.16;12195887;19;20023;-78
2022/10/22 17:09:36;;;;;;;15.43;1.70;;;;;;;15.64;100.00;99813.56;12220388;19;20014;-77
2022/10/22 17:13:40;;;;;;;8.20;2.03;;;;;;;15.60;100.00;99818.03;12219287;19;20021;-78
2022/10/22 17:17:41;;;;;;;15.77;3.30;;;;;;;15.53;100.00;99823.06;12197814;19;20010;-77
2022/10/22 17:21:43;;;;;;;9.93;2.10;;;;;;;15.48;100.00;99821.97;12216691;19;20038;-78
2022/10/22 17:25:45;;;;;;;9.57;2.05;;;;;;;15.42;100.00;99825.03;12194994;19;20010;-78
2022/10/22 17:29:46;;;;;;;18.08;2.50;;;;;;;15.37;100.00;99831.44;12220648;19;20388;-77
2022/10/22 17:33:50;;;;;;;13.05;2.28;;;;;;;15.32;100.00;99830.59;12216469;19;20014;-77
2022/10/22 17:37:52;;;;;;;17.75;2.08;;;;;;;15.25;100.00;99833.69;12196248;19;20508;-77
2022/10/22 17:41:53;;;;;;;8.52;2.58;;;;;;;15.20;100.00;99830.91;12217138;19;20006;-77
2022/10/22 17:46:06;;;;;;;9.88;1.70;;;;;;;15.15;100.00;99842.03;12217706;19;20018;-79
2022/10/22 17:50:08;;;;;;;7.05;1.33;;;;;;;15.10;100.00;99847.56;12189623;19;20090;-79
2022/10/22 17:54:11;;;;;;;11.88;3.20;;;;;;;15.08;100.00;99844.25;12216193;19;20380;-78
2022/10/22 17:58:13;;;;;;;7.20;2.40;;;;;;;15.04;100.00;99864.22;12213867;19;20010;-78
2022/10/22 18:02:16;;;;;;;12.80;2.00;;;;;;;15.02;100.00;99865.59;12192561;19;20076;-78
2022/10/22 18:06:20;;;;;;;7.10;1.92;;;;;;;15.00;100.00;99865.91;12208080;19;20006;-78
2022/10/22 18:10:22;;;;;;;6.53;1.30;;;;;;;15.00;100.00;99865.91;12211693;19;20002;-77
2022/10/22 18:14:25;;;;;;;5.90;2.17;;;;;;;15.01;100.00;99861.19;12192166;19;20014;-77
2022/10/22 18:18:27;;;;;;;6.53;1.70;;;;;;;15.00;100.00;99867.84;12215678;19;20011;-78
2022/10/22 18:22:31;;;;;;;17.33;2.28;;;;;;;15.00;100.00;99862.31;12205496;19;20006;-78
2022/10/22 18:26:33;;;;;;;5.80;1.50;;;;;;;14.98;100.00;99868.09;12186613;19;20054;-78
2022/10/22 18:30:37;;;;;;;10.43;2.05;;;;;;;14.98;100.00;99861.75;12210309;19;20042;-78
2022/10/22 18:34:39;;;;;;;8.43;2.83;;;;;;;14.97;100.00;99848.97;12207117;19;20444;-78
2022/10/22 18:38:41;;;;;;;9.20;2.75;;;;;;;14.96;100.00;99842.59;12186763;19;20034;-77
2022/10/22 18:42:43;;;;;;;14.40;2.97;;;;;;;14.94;100.00;99844.81;12209819;19;20279;-78
2022/10/22 18:46:45;;;;;;;;;;;;;;;14.91;100.00;99848.16;12189337;19;20669;-79
2022/10/22 18:50:56;;;;;;;8.25;1.63;;;;;;;14.90;100.00;99849.28;12205186;19;19929;-79
2022/10/22 18:54:58;;;;;;;5.40;1.77;;;;;;;14.89;100.00;99847.59;12209048;19;20046;-79
2022/10/22 18:58:59;;;;;;;8.18;1.83;;;;;;;14.88;100.00;99834.84;12211662;19;20006;-77